Time;durP1;ratioP1;P1;durP2;ratioP2;P2;SDS_P1;SDS_P2;PMS_P1;PMS_P2;Temp;Humidity;BMP_temperature;BMP_pressure;BME280_temperature;BME280_humidity;BME280_pressure;Samples;Min_cycle;Max_cycle;Signal;HPM_P1;HPM_P2
2021/06/17 00:00:29;;;;;;;18.48;6.22;;;538.20;2022.40;;;;;;4870475;29;20029;-85
2021/06/17 00:02:56;;;;;;;12.93;6.55;;;538.20;1996.80;;;;;;4864596;29;20080;-86
2021/06/17 00:05:28;;;;;;;14.43;6.13;;;538.10;2022.40;;;;;;4877679;29;20041;-84
2021/06/17 00:07:55;;;;;;;18.60;7.45;;;538.10;2022.40;;;;;;4863501;29;20101;-85
2021/06/17 00:10:36;;;;;;;11.82;6.80;;;538.10;2022.40;;;;;;4861475;29;20052;-85
2021/06/17 00:13:07;;;;;;;11.07;6.68;;;538.10;2022.40;;;;;;4861661;29;20080;-83
2021/06/17 00:15:34;;;;;;;16.27;7.00;;;538.00;2022.40;;;;;;4859675;29;20032;-85
2021/06/17 00:18:00;;;;;;;13.85;7.60;;;537.90;2022.40;;;;;;4861725;29;20021;-85
2021/06/17 00:20:27;;;;;;;15.65;7.95;;;538.00;1996.80;;;;;;4861763;29;20075;-85
2021/06/17 00:22:53;;;;;;;16.55;7.03;;;538.00;2022.40;;;;;;4860966;29;20108;-84
2021/06/17 00:25:20;;;;;;;12.45;7.20;;;538.10;1996.80;;;;;;4878170;29;20041;-84
2021/06/17 00:27:46;;;;;;;10.90;6.82;;;538.20;1996.80;;;;;;4864093;29;20057;-85
2021/06/17 00:30:13;;;;;;;15.93;7.10;;;538.20;1996.80;;;;;;4862408;29;20120;-85
2021/06/17 00:32:40;;;;;;;16.00;7.55;;;538.30;1971.20;;;;;;4881608;29;20029;-85
2021/06/17 00:35:07;;;;;;;11.05;6.50;;;538.30;1971.20;;;;;;4865164;29;20172;-84
2021/06/17 00:37:33;;;;;;;16.48;8.25;;;538.30;1971.20;;;;;;4864951;29;20025;-85
2021/06/17 00:39:59;;;;;;;16.08;8.05;;;538.20;1996.80;;;;;;4865000;29;20033;-85
2021/06/17 00:42:26;;;;;;;11.63;6.97;;;538.10;1996.80;;;;;;4865657;29;20029;-85
2021/06/17 00:44:52;;;;;;;18.90;8.32;;;538.10;1996.80;;;;;;4864840;29;20539;-85
2021/06/17 00:47:18;;;;;;;16.63;7.95;;;538.00;2022.40;;;;;;4881736;29;20040;-84
2021/06/17 00:49:43;;;;;;;14.82;7.43;;;538.00;2022.40;;;;;;4864281;29;20041;-85
2021/06/17 00:52:09;;;;;;;14.15;7.65;;;538.00;2022.40;;;;;;4864712;29;20098;-85
2021/06/17 00:54:35;;;;;;;20.88;7.60;;;538.00;2022.40;;;;;;4865052;29;20093;-84
2021/06/17 00:57:07;;;;;;;13.52;7.80;;;538.00;2022.40;;;;;;4865130;29;20029;-85
2021/06/17 00:59:37;;;;;;;12.18;7.18;;;538.10;1996.80;;;;;;4864900;29;20488;-85
2021/06/17 01:02:04;;;;;;;13.25;7.53;;;538.20;1996.80;;;;;;4864584;29;20033;-85
2021/06/17 01:04:30;;;;;;;16.33;7.35;;;538.10;1996.80;;;;;;4864690;29;20040;-84
2021/06/17 01:06:57;;;;;;;16.88;7.63;;;538.20;1971.20;;;;;;4863969;29;20492;-85
2021/06/17 01:09:50;;;;;;;17.50;8.40;;;538.10;1996.80;;;;;;4881153;29;20094;-84
2021/06/17 01:12:42;;;;;;;10.80;6.78;;;538.00;1996.80;;;;;;4864661;29;20033;-85
2021/06/17 01:15:20;;;;;;;10.70;6.90;;;538.00;1996.80;;;;;;4865918;29;20162;-84
2021/06/17 01:17:57;;;;;;;11.10;6.78;;;538.10;1996.80;;;;;;4876583;29;20056;-85
2021/06/17 01:20:29;;;;;;;12.85;7.38;;;538.10;1996.80;;;;;;4874775;29;20026;-85
2021/06/17 01:23:25;;;;;;;18.88;7.97;;;538.10;1971.20;;;;;;4863898;29;20083;-84
2021/06/17 01:26:12;;;;;;;12.32;7.28;;;538.10;1971.20;;;;;;4864432;29;20052;-85
2021/06/17 01:28:40;;;;;;;11.65;6.55;;;538.20;1971.20;;;;;;4864582;29;20035;-83
2021/06/17 01:31:10;;;;;;;11.73;7.22;;;538.10;1971.20;;;;;;4858245;29;20044;-85
2021/06/17 01:33:38;;;;;;;15.75;7.30;;;538.20;1971.20;;;;;;4880607;29;20029;-85
2021/06/17 01:36:08;;;;;;;8.63;5.65;;;538.20;1971.20;;;;;;4880955;29;20032;-84
2021/06/17 01:38:36;;;;;;;12.45;6.68;;;538.20;1971.20;;;;;;4863249;29;20090;-84
2021/06/17 01:41:04;;;;;;;13.05;6.93;;;538.20;1971.20;;;;;;4868124;29;20085;-85
2021/06/17 01:43:31;;;;;;;12.27;7.35;;;538.30;1971.20;;;;;;4864259;29;20029;-84
2021/06/17 01:45:58;;;;;;;13.27;6.38;;;538.20;1971.20;;;;;;4854383;29;20049;-83
2021/06/17 01:48:26;;;;;;;16.13;6.93;;;538.20;1971.20;;;;;;4876569;29;20480;-84
2021/06/17 01:50:54;;;;;;;12.45;6.70;;;538.20;1971.20;;;;;;4863640;29;20484;-84
2021/06/17 01:53:23;;;;;;;9.90;7.05;;;538.20;1971.20;;;;;;4864114;29;20083;-84
2021/06/17 01:55:50;;;;;;;15.07;7.60;;;538.20;1971.20;;;;;;4873030;29;20036;-84
2021/06/17 01:58:19;;;;;;;11.07;6.80;;;538.10;1971.20;;;;;;4863919;29;20029;-85
2021/06/17 02:00:47;;;;;;;16.02;7.68;;;538.00;1996.80;;;;;;4861800;29;20030;-85
2021/06/17 02:03:14;;;;;;;12.98;7.00;;;538.00;1996.80;;;;;;4863758;29;20327;-85
2021/06/17 02:05:41;;;;;;;12.93;7.10;;;537.90;2022.40;;;;;;4863420;29;20068;-85
2021/06/17 02:08:08;;;;;;;13.05;6.82;;;537.80;2022.40;;;;;;4854272;29;20424;-85
2021/06/17 02:10:37;;;;;;;13.52;6.65;;;537.60;2073.60;;;;;;4863510;29;20033;-84
2021/06/17 02:13:05;;;;;;;11.75;6.47;;;512.90;2048.00;;;;;;4863277;29;20490;-85
2021/06/17 02:15:32;;;;;;;16.00;7.35;;;512.90;2073.60;;;;;;4863364;29;20056;-84
2021/06/17 02:17:59;;;;;;;10.55;6.97;;;512.80;2048.00;;;;;;4863304;29;20025;-83
2021/06/17 02:20:26;;;;;;;15.20;7.85;;;512.80;2048.00;;;;;;4880012;29;20025;-84
2021/06/17 02:22:56;;;;;;;13.98;7.20;;;512.80;2048.00;;;;;;4863006;29;20056;-84
2021/06/17 02:25:24;;;;;;;18.02;7.60;;;512.80;2048.00;;;;;;4870464;29;20096;-84
2021/06/17 02:27:57;;;;;;;13.13;7.60;;;512.80;2073.60;;;;;;4860408;29;20070;-84
2021/06/17 02:30:26;;;;;;;14.63;6.55;;;512.70;2073.60;;;;;;4863001;29;20036;-82
2021/06/17 02:32:55;;;;;;;11.05;6.40;;;512.70;2073.60;;;;;;4863154;29;20029;-84
2021/06/17 02:35:24;;;;;;;10.65;6.80;;;512.70;2073.60;;;;;;4856982;29;20056;-84
2021/06/17 02:37:54;;;;;;;10.32;6.40;;;512.70;2073.60;;;;;;4865937;29;20036;-82
2021/06/17 02:40:21;;;;;;;17.88;6.47;;;512.70;2073.60;;;;;;4862487;29;20033;-82
2021/06/17 02:42:50;;;;;;;10.98;6.45;;;512.80;2048.00;;;;;;4879070;29;20033;-85
2021/06/17 02:45:16;;;;;;;18.42;7.80;;;512.70;2048.00;;;;;;4873010;29;20052;-85
2021/06/17 02:47:42;;;;;;;10.05;7.07;;;512.70;2073.60;;;;;;4849698;29;20029;-85
2021/06/17 02:50:08;;;;;;;11.63;7.53;;;512.80;2073.60;;;;;;4862746;29;20032;-84
2021/06/17 02:52:37;;;;;;;11.60;6.65;;;512.70;2073.60;;;;;;4875730;29;20029;-85
2021/06/17 02:55:04;;;;;;;15.02;7.72;;;512.80;2073.60;;;;;;4879416;29;20036;-84
2021/06/17 02:57:57;;;;;;;11.80;7.70;;;512.70;2073.60;;;;;;4877987;29;20025;-85
2021/06/17 03:00:28;;;;;;;13.05;6.60;;;512.80;2073.60;;;;;;4862707;29;20033;-85
2021/06/17 03:03:15;;;;;;;13.38;7.32;;;512.80;2073.60;;;;;;4862779;29;20369;-84
2021/06/17 03:05:52;;;;;;;12.80;6.85;;;512.70;2073.60;;;;;;4863027;29;20041;-85
2021/06/17 03:08:47;;;;;;;12.43;7.45;;;512.70;2073.60;;;;;;4863530;29;20032;-85
2021/06/17 03:11:15;;;;;;;14.98;7.63;;;512.80;2073.60;;;;;;4860151;29;20029;-85
2021/06/17 03:13:46;;;;;;;12.48;6.40;;;512.90;2048.00;;;;;;4862747;29;20029;-85
2021/06/17 03:16:17;;;;;;;14.88;6.65;;;512.70;2073.60;;;;;;4874656;29;20089;-86
2021/06/17 03:18:44;;;;;;;11.07;6.85;;;512.70;2073.60;;;;;;4862561;29;20029;-84
2021/06/17 03:21:12;;;;;;;12.50;6.50;;;512.80;2073.60;;;;;;4878663;29;20496;-83
2021/06/17 03:23:40;;;;;;;13.52;7.00;;;512.80;2073.60;;;;;;4862191;29;20064;-83
2021/06/17 03:26:09;;;;;;;10.00;6.93;;;512.70;2073.60;;;;;;4862151;29;20044;-84
2021/06/17 03:28:39;;;;;;;11.82;6.03;;;512.70;2073.60;;;;;;4874533;29;20048;-84
2021/06/17 03:31:07;;;;;;;10.50;6.35;;;512.80;2073.60;;;;;;4862474;29;20033;-84
2021/06/17 03:33:36;;;;;;;15.15;6.15;;;512.80;2073.60;;;;;;4862034;29;20061;-84
2021/06/17 03:36:05;;;;;;;11.05;6.50;;;512.80;2073.60;;;;;;4878967;29;20102;-84
2021/06/17 03:38:32;;;;;;;14.52;6.63;;;512.80;2073.60;;;;;;4863373;29;20035;-84
2021/06/17 03:40:58;;;;;;;11.07;5.85;;;512.80;2073.60;;;;;;4861980;29;20025;-84
2021/06/17 03:43:25;;;;;;;12.80;6.13;;;512.80;2073.60;;;;;;4862218;29;20029;-83
2021/06/17 03:45:54;;;;;;;12.68;6.55;;;512.80;2073.60;;;;;;4863387;29;20037;-84
2021/06/17 03:48:20;;;;;;;10.27;5.32;;;512.80;2073.60;;;;;;4870685;29;20495;-84
2021/06/17 03:50:47;;;;;;;17.00;6.93;;;512.80;2073.60;;;;;;4874903;29;20476;-84
2021/06/17 03:53:14;;;;;;;12.05;5.95;;;512.80;2073.60;;;;;;4862271;29;20037;-84
2021/06/17 03:55:42;;;;;;;11.13;7.18;;;512.90;2073.60;;;;;;4872687;29;20037;-83
2021/06/17 03:58:08;;;;;;;11.60;6.57;;;512.90;2048.00;;;;;;4862335;29;20025;-83
2021/06/17 04:00:34;;;;;;;11.38;7.40;;;512.80;2073.60;;;;;;4862098;29;20089;-83
2021/06/17 04:03:05;;;;;;;12.98;7.60;;;512.80;2048.00;;;;;;4864905;29;20021;-83
2021/06/17 04:05:31;;;;;;;13.95;7.18;;;512.90;2048.00;;;;;;4874385;29;20047;-84
2021/06/17 04:08:00;;;;;;;18.25;7.55;;;512.90;2048.00;;;;;;4867681;29;20021;-84
2021/06/17 04:10:27;;;;;;;16.42;8.15;;;512.80;2048.00;;;;;;4882250;29;20029;-83
2021/06/17 04:12:58;;;;;;;17.27;7.43;;;512.90;2073.60;;;;;;4865163;29;20392;-83
2021/06/17 04:15:26;;;;;;;19.77;8.02;;;512.80;2073.60;;;;;;4865650;29;20025;-85
2021/06/17 04:17:56;;;;;;;12.95;6.75;;;512.90;2048.00;;;;;;4877200;29;20041;-84
2021/06/17 04:20:45;;;;;;;11.55;6.63;;;512.90;2048.00;;;;;;4865318;29;20088;-85
2021/06/17 04:23:16;;;;;;;11.02;7.50;;;537.60;2073.60;;;;;;4878782;29;20504;-83
2021/06/17 04:25:43;;;;;;;14.10;7.70;;;512.90;2048.00;;;;;;4873665;29;20128;-85
2021/06/17 04:28:10;;;;;;;11.88;7.60;;;537.60;2073.60;;;;;;4865443;29;20025;-84
2021/06/17 04:30:36;;;;;;;14.82;7.53;;;512.90;2048.00;;;;;;4865721;29;20089;-85
2021/06/17 04:33:06;;;;;;;14.27;7.18;;;537.70;2073.60;;;;;;4877781;29;20053;-84
2021/06/17 04:35:34;;;;;;;19.83;8.13;;;537.80;2073.60;;;;;;4865345;29;20025;-84
2021/06/17 04:38:00;;;;;;;12.00;7.18;;;537.80;2073.60;;;;;;4861935;29;20037;-85
2021/06/17 04:40:26;;;;;;;12.90;7.07;;;537.70;2099.20;;;;;;4856142;29;20034;-85
2021/06/17 04:42:57;;;;;;;15.35;7.53;;;512.90;2022.40;;;;;;4875979;29;20026;-85
2021/06/17 04:45:26;;;;;;;14.52;7.22;;;537.90;2048.00;;;;;;4881346;29;20169;-83
2021/06/17 04:47:53;;;;;;;12.48;6.53;;;538.00;2073.60;;;;;;4864642;29;20021;-84
2021/06/17 04:50:21;;;;;;;11.88;7.40;;;538.00;2048.00;;;;;;4865073;29;20112;-86
2021/06/17 04:52:50;;;;;;;8.98;6.35;;;538.10;2022.40;;;;;;4864244;29;20116;-83
2021/06/17 04:55:17;;;;;;;16.90;7.80;;;538.20;2048.00;;;;;;4872848;29;20076;-84
2021/06/17 04:57:43;;;;;;;12.32;6.90;;;538.10;2048.00;;;;;;4878743;29;20028;-81
2021/06/17 05:00:09;;;;;;;10.98;7.20;;;538.20;2048.00;;;;;;4864353;29;20037;-87
2021/06/17 05:02:35;;;;;;;15.00;7.95;;;538.20;2022.40;;;;;;4864504;29;20100;-82
2021/06/17 05:05:01;;;;;;;10.88;6.78;;;538.40;1996.80;;;;;;4880536;29;20069;-83
2021/06/17 05:12:50;;;;;;;11.18;7.03;;;563.20;2022.40;;;;;;4880168;29;20518;-85
2021/06/17 05:15:16;;;;;;;11.45;6.90;;;563.30;2048.00;;;;;;4880482;29;20025;-81
2021/06/17 05:17:42;;;;;;;12.95;7.78;;;563.50;2022.40;;;;;;4874588;29;20110;-83
2021/06/17 05:20:09;;;;;;;12.38;8.15;;;563.50;1996.80;;;;;;4862947;29;20060;-81
2021/06/17 05:22:35;;;;;;;17.35;7.20;;;563.60;1971.20;;;;;;4860478;29;20053;-83
2021/06/17 05:25:02;;;;;;;12.05;7.63;;;563.60;1971.20;;;;;;4854801;29;20067;-81
2021/06/17 05:27:29;;;;;;;18.30;8.38;;;563.70;1971.20;;;;;;4853216;29;20489;-85
2021/06/17 05:29:55;;;;;;;16.27;8.13;;;563.80;1971.20;;;;;;4869743;29;20041;-83
2021/06/17 05:32:20;;;;;;;12.25;7.38;;;563.90;1971.20;;;;;;4857875;29;20025;-87
2021/06/17 05:34:46;;;;;;;13.38;7.60;;;563.90;1971.20;;;;;;4858669;29;20488;-86
2021/06/17 05:37:12;;;;;;;14.25;8.02;;;564.00;1971.20;;;;;;4863922;29;20021;-91
2021/06/17 05:39:40;;;;;;;12.38;7.22;;;564.10;1971.20;;;;;;4860785;29;20060;-87
2021/06/17 05:42:06;;;;;;;13.90;6.53;;;588.80;1971.20;;;;;;4864417;29;20025;-90
2021/06/17 05:44:32;;;;;;;12.90;7.47;;;588.90;1945.60;;;;;;4863830;29;20028;-89
2021/06/17 05:46:58;;;;;;;12.52;7.07;;;589.00;1945.60;;;;;;4873658;29;20035;-81
2021/06/17 05:49:24;;;;;;;11.73;7.55;;;589.00;1945.60;;;;;;4866075;29;20092;-84
2021/06/17 05:51:51;;;;;;;20.25;7.15;;;589.00;1971.20;;;;;;4879312;29;20040;-85
2021/06/17 05:54:17;;;;;;;10.85;6.70;;;589.20;1971.20;;;;;;4864648;29;20033;-85
2021/06/17 05:56:43;;;;;;;16.75;7.63;;;589.30;1945.60;;;;;;4856580;29;20036;-85
2021/06/17 05:59:09;;;;;;;10.93;6.88;;;589.30;1920.00;;;;;;4863610;29;20029;-82
2021/06/17 06:01:34;;;;;;;10.75;6.60;;;589.40;1920.00;;;;;;4862958;29;20085;-83
2021/06/17 06:04:00;;;;;;;18.20;7.00;;;589.50;1920.00;;;;;;4879643;29;20031;-82
2021/06/17 06:06:26;;;;;;;16.13;7.30;;;589.60;1920.00;;;;;;4873181;29;20132;-82
2021/06/17 06:08:52;;;;;;;15.05;6.40;;;589.70;1920.00;;;;;;4871626;29;20029;-83
2021/06/17 06:11:18;;;;;;;12.73;6.95;;;614.40;1868.80;;;;;;4863082;29;20495;-83
2021/06/17 06:13:45;;;;;;;16.85;7.15;;;614.40;1868.80;;;;;;4863317;29;20094;-87
2021/06/17 06:16:10;;;;;;;14.40;7.05;;;614.50;1843.20;;;;;;4879358;29;20029;-81
2021/06/17 06:18:36;;;;;;;11.07;7.70;;;614.60;1817.60;;;;;;4862603;29;20029;-80
2021/06/17 06:21:02;;;;;;;14.13;7.00;;;614.70;1817.60;;;;;;4862315;29;20024;-82
2021/06/17 06:23:29;;;;;;;14.50;8.30;;;614.70;1792.00;;;;;;4862364;29;20513;-82
2021/06/17 06:25:55;;;;;;;8.95;6.68;;;614.60;1792.00;;;;;;4862142;29;20052;-79
2021/06/17 06:28:22;;;;;;;14.38;7.55;;;614.80;1766.40;;;;;;4862159;29;20094;-78
2021/06/17 06:30:50;;;;;;;12.27;7.05;;;614.90;1792.00;;;;;;4879164;29;20045;-80
2021/06/17 06:33:20;;;;;;;12.90;7.28;;;615.00;1766.40;;;;;;4861799;29;20029;-79
2021/06/17 06:35:47;;;;;;;13.30;7.63;;;615.10;1766.40;;;;;;4878949;29;20025;-81
2021/06/17 06:38:13;;;;;;;16.60;6.07;;;615.20;1766.40;;;;;;4860901;29;20021;-82
2021/06/17 06:40:40;;;;;;;15.27;6.60;;;615.20;1766.40;;;;;;4878977;29;20029;-86
2021/06/17 06:43:07;;;;;;;10.70;5.30;;;615.30;1766.40;;;;;;4871698;29;20128;-81
2021/06/17 06:45:34;;;;;;;10.50;5.70;;;640.10;1792.00;;;;;;4859797;29;20037;-83
2021/06/17 06:48:00;;;;;;;10.98;8.48;;;640.20;1766.40;;;;;;4862801;29;20119;-82
2021/06/17 06:50:26;;;;;;;13.95;6.82;;;640.30;1740.80;;;;;;4862192;29;20028;-82
2021/06/17 06:52:53;;;;;;;9.40;5.72;;;640.50;1740.80;;;;;;4862683;29;20047;-82
2021/06/17 06:55:19;;;;;;;10.70;5.88;;;640.60;1766.40;;;;;;4862151;29;20107;-82
2021/06/17 06:57:45;;;;;;;11.02;5.35;;;640.60;1740.80;;;;;;4862648;29;20460;-82
2021/06/17 07:00:13;;;;;;;13.55;5.72;;;640.60;1740.80;;;;;;4862080;29;20025;-82
2021/06/17 07:02:39;;;;;;;13.55;6.18;;;640.70;1740.80;;;;;;4862084;29;20021;-81
2021/06/17 07:05:06;;;;;;;15.00;6.18;;;640.70;1766.40;;;;;;4862166;29;20164;-82
2021/06/17 07:07:31;;;;;;;13.25;5.47;;;640.90;1715.20;;;;;;4862115;29;20028;-79
2021/06/17 07:09:57;;;;;;;9.27;5.10;;;640.90;1715.20;;;;;;4859519;29;20456;-79
2021/06/17 07:12:23;;;;;;;9.40;6.00;;;640.90;1715.20;;;;;;4849814;29;20548;-80
2021/06/17 07:14:49;;;;;;;12.52;5.30;;;640.90;1740.80;;;;;;4853816;29;20033;-82
2021/06/17 07:17:15;;;;;;;10.85;5.57;;;665.60;1740.80;;;;;;4868573;29;20040;-82
2021/06/17 07:19:42;;;;;;;7.85;4.97;;;665.70;1715.20;;;;;;4859876;29;20040;-82
2021/06/17 07:22:08;;;;;;;12.52;5.80;;;665.70;1715.20;;;;;;4858733;29;20174;-82
2021/06/17 07:24:34;;;;;;;10.07;5.28;;;665.90;1740.80;;;;;;4845079;29;20048;-82
2021/06/17 07:27:01;;;;;;;13.20;5.55;;;666.00;1689.60;;;;;;4866435;29;20028;-82
2021/06/17 07:29:26;;;;;;;8.88;4.93;;;666.00;1715.20;;;;;;4854563;29;20129;-82
2021/06/17 07:31:52;;;;;;;9.68;5.70;;;666.00;1689.60;;;;;;4861754;29;20161;-81
2021/06/17 07:34:18;;;;;;;9.50;5.28;;;666.00;1689.60;;;;;;4861619;29;20029;-82
2021/06/17 07:36:44;;;;;;;11.43;4.60;;;666.20;1664.00;;;;;;4863322;29;20063;-82
2021/06/17 07:39:11;;;;;;;9.88;4.22;;;666.30;1638.40;;;;;;4865474;29;20086;-82
2021/06/17 07:41:38;;;;;;;11.57;5.20;;;666.40;1638.40;;;;;;4854981;29;20061;-82
2021/06/17 07:44:05;;;;;;;7.97;4.65;;;666.50;1638.40;;;;;;4873638;29;20040;-82
2021/06/17 07:46:31;;;;;;;10.57;5.07;;;666.50;1689.60;;;;;;4862864;29;20535;-82
2021/06/17 07:49:01;;;;;;;7.40;4.72;;;691.20;1638.40;;;;;;4881884;29;20468;-82
2021/06/17 07:51:28;;;;;;;13.10;5.03;;;691.30;1638.40;;;;;;4864912;29;20036;-81
2021/06/17 07:53:59;;;;;;;7.43;4.78;;;691.40;1638.40;;;;;;4881883;29;20085;-82
2021/06/17 07:56:25;;;;;;;10.63;4.70;;;691.60;1612.80;;;;;;4865236;29;20025;-80
2021/06/17 07:58:51;;;;;;;7.30;4.38;;;691.60;1612.80;;;;;;4877967;29;20125;-82
2021/06/17 08:01:17;;;;;;;4.88;3.88;;;691.80;1587.20;;;;;;4865181;29;20123;-82
2021/06/17 08:03:43;;;;;;;7.70;4.47;;;691.80;1587.20;;;;;;4864844;29;20033;-81
2021/06/17 08:06:09;;;;;;;7.18;4.57;;;691.80;1561.60;;;;;;4864672;29;20492;-82
2021/06/17 08:08:35;;;;;;;6.63;4.53;;;691.90;1561.60;;;;;;4864997;29;20032;-82
2021/06/17 08:11:01;;;;;;;8.00;4.15;;;692.00;1536.00;;;;;;4881297;29;20449;-82
2021/06/17 08:13:26;;;;;;;8.57;4.50;;;691.90;1536.00;;;;;;4864576;29;20021;-82
2021/06/17 08:15:52;;;;;;;15.27;4.78;;;692.10;1536.00;;;;;;4864823;29;20498;-82
2021/06/17 08:18:19;;;;;;;4.07;3.25;;;692.10;1510.40;;;;;;4864464;29;20085;-81
2021/06/17 08:20:44;;;;;;;7.57;3.60;;;716.80;1510.40;;;;;;4864315;29;20081;-81
2021/06/17 08:23:10;;;;;;;9.70;4.10;;;716.90;1510.40;;;;;;4864230;29;20056;-81
2021/06/17 08:25:36;;;;;;;8.80;4.15;;;716.90;1484.80;;;;;;4881224;29;20452;-82
2021/06/17 08:28:05;;;;;;;10.35;3.78;;;717.00;1510.40;;;;;;4881001;29;20032;-82
2021/06/17 08:30:33;;;;;;;6.28;3.85;;;717.10;1510.40;;;;;;4862209;29;20116;-81
2021/06/17 08:32:59;;;;;;;7.10;3.13;;;717.10;1459.20;;;;;;4880907;29;20468;-81
2021/06/17 08:35:25;;;;;;;5.35;3.22;;;717.10;1459.20;;;;;;4863928;29;20540;-78
2021/06/17 08:37:53;;;;;;;6.93;3.67;;;717.30;1433.60;;;;;;4880977;29;20077;-81
2021/06/17 08:40:19;;;;;;;9.77;3.58;;;717.30;1408.00;;;;;;4880786;29;20025;-81
2021/06/17 08:42:45;;;;;;;4.93;3.22;;;717.30;1382.40;;;;;;4864366;29;20044;-80
2021/06/17 08:45:12;;;;;;;8.35;3.00;;;717.40;1356.80;;;;;;4863938;29;20120;-81
2021/06/17 08:47:38;;;;;;;5.90;3.25;;;717.40;1382.40;;;;;;4863871;29;20024;-81
2021/06/17 08:50:11;;;;;;;9.13;2.90;;;717.40;1382.40;;;;;;4863903;29;20036;-81
2021/06/17 08:52:41;;;;;;;5.03;3.17;;;717.40;1331.20;;;;;;4860733;29;20391;-81
2021/06/17 08:55:10;;;;;;;3.33;2.45;;;717.60;1331.20;;;;;;4863777;29;20032;-81
2021/06/17 08:57:36;;;;;;;4.28;3.10;;;717.60;1331.20;;;;;;4861898;29;20480;-82
2021/06/17 09:00:23;;;;;;;3.95;2.50;;;717.70;1305.60;;;;;;4863857;29;20120;-81
2021/06/17 09:03:04;;;;;;;4.80;3.08;;;717.70;1305.60;;;;;;4863699;29;20543;-80
2021/06/17 09:05:33;;;;;;;4.97;3.15;;;717.70;1305.60;;;;;;4861216;29;20041;-81
2021/06/17 09:08:01;;;;;;;3.60;2.90;;;717.70;1305.60;;;;;;4863910;29;20021;-81
2021/06/17 09:10:28;;;;;;;6.30;3.08;;;742.40;1331.20;;;;;;4863470;29;20073;-80
2021/06/17 09:12:56;;;;;;;3.72;2.60;;;742.60;1280.00;;;;;;4863534;29;20025;-81
2021/06/17 09:15:34;;;;;;;7.15;3.00;;;742.60;1305.60;;;;;;4856184;29;20029;-82
2021/06/17 09:18:19;;;;;;;4.65;3.15;;;742.50;1305.60;;;;;;4863677;29;20021;-81
2021/06/17 09:20:50;;;;;;;4.03;2.78;;;742.80;1254.40;;;;;;4861583;29;20033;-82
2021/06/17 09:23:27;;;;;;;6.35;2.70;;;742.90;1228.80;;;;;;4861542;29;20393;-80
2021/06/17 09:25:57;;;;;;;6.43;3.08;;;743.00;1228.80;;;;;;4879599;29;20037;-81
2021/06/17 09:28:24;;;;;;;4.80;3.17;;;743.30;1254.40;;;;;;4861496;29;20064;-81
2021/06/17 09:30:50;;;;;;;5.75;3.65;;;768.00;1203.20;;;;;;4863378;29;20039;-82
2021/06/17 09:33:16;;;;;;;4.45;2.85;;;768.10;1203.20;;;;;;4880190;29;20021;-81
2021/06/17 09:35:49;;;;;;;5.40;2.70;;;768.30;1152.00;;;;;;4862752;29;20480;-82
2021/06/17 09:38:15;;;;;;;8.75;2.88;;;768.40;1152.00;;;;;;4879996;29;20061;-81
2021/06/17 09:40:49;;;;;;;5.07;2.80;;;768.40;1126.40;;;;;;4866919;29;20112;-82
2021/06/17 09:43:18;;;;;;;4.03;2.80;;;768.50;1100.80;;;;;;4863283;29;20033;-82
2021/06/17 09:45:54;;;;;;;3.75;2.22;;;768.90;1126.40;;;;;;4863680;29;20288;-81
2021/06/17 09:48:34;;;;;;;3.70;2.58;;;768.90;1075.20;;;;;;4871452;29;20403;-81
2021/06/17 09:51:28;;;;;;;3.65;2.38;;;793.60;1100.80;;;;;;4863160;29;20029;-79
2021/06/17 09:54:21;;;;;;;4.32;2.40;;;768.90;1075.20;;;;;;4863536;29;20523;-82
2021/06/17 09:56:51;;;;;;;3.00;2.17;;;793.60;1100.80;;;;;;4863363;29;20488;-82
2021/06/17 09:59:38;;;;;;;4.28;2.30;;;793.70;1049.60;;;;;;4862322;29;20115;-82
2021/06/17 10:02:06;;;;;;;4.50;2.20;;;793.70;1100.80;;;;;;4863052;29;20552;-80
2021/06/17 10:04:33;;;;;;;5.05;2.40;;;793.70;1100.80;;;;;;4862981;29;20025;-82
2021/06/17 10:07:00;;;;;;;3.85;2.30;;;793.90;1049.60;;;;;;4862804;29;20033;-81
2021/06/17 10:09:26;;;;;;;4.38;2.80;;;794.10;1075.20;;;;;;4879928;29;20066;-85
2021/06/17 10:11:52;;;;;;;3.33;2.20;;;794.30;1100.80;;;;;;4862719;29;20029;-82
2021/06/17 10:14:18;;;;;;;3.90;2.72;;;794.20;1049.60;;;;;;4862450;29;20136;-81
2021/06/17 10:16:45;;;;;;;7.10;2.10;;;794.30;1075.20;;;;;;4879158;29;20032;-82
2021/06/17 10:19:12;;;;;;;6.40;2.90;;;794.40;1049.60;;;;;;4856330;29;20017;-80
2021/06/17 10:21:39;;;;;;;6.65;2.97;;;794.30;1049.60;;;;;;4862332;29;20376;-82
2021/06/17 10:24:35;;;;;;;5.32;2.70;;;794.20;1100.80;;;;;;4862348;29;20045;-81
2021/06/17 10:27:11;;;;;;;7.65;3.05;;;794.50;1075.20;;;;;;4860432;29;20049;-81
2021/06/17 10:29:41;;;;;;;6.07;3.85;;;794.50;1100.80;;;;;;4862329;29;20036;-81
2021/06/17 10:32:10;;;;;;;6.28;2.88;;;794.20;1126.40;;;;;;4878930;29;20032;-81
2021/06/17 10:34:38;;;;;;;5.00;2.67;;;794.30;1075.20;;;;;;4879144;29;20032;-80
2021/06/17 10:37:22;;;;;;;6.32;3.33;;;794.40;1075.20;;;;;;4861977;29;20033;-82
2021/06/17 10:40:05;;;;;;;6.55;2.70;;;794.50;1100.80;;;;;;4861114;29;20179;-81
2021/06/17 10:42:38;;;;;;;5.28;3.13;;;794.40;1100.80;;;;;;4861086;29;20033;-83
2021/06/17 10:45:26;;;;;;;4.85;2.38;;;794.10;1100.80;;;;;;4862171;29;20033;-82
2021/06/17 10:47:54;;;;;;;4.57;2.92;;;794.50;1075.20;;;;;;4861993;29;20029;-80
2021/06/17 10:50:25;;;;;;;5.15;2.65;;;794.50;1049.60;;;;;;4861820;29;20060;-88
2021/06/17 10:52:53;;;;;;;3.20;2.53;;;819.20;1075.20;;;;;;4861658;29;20041;-79
2021/06/17 10:55:25;;;;;;;4.00;2.45;;;794.30;1100.80;;;;;;4861572;29;20029;-80
2021/06/17 10:57:55;;;;;;;31.33;3.90;;;794.50;1075.20;;;;;;4861354;29;20033;-80
2021/06/17 11:02:57;;;;;;;4.43;2.58;;;794.50;1100.80;;;;;;4878297;29;20032;-81
2021/06/17 11:05:32;;;;;;;8.05;3.30;;;819.30;1024.00;;;;;;4878014;29;20037;-81
2021/06/17 11:08:19;;;;;;;5.82;2.58;;;819.40;1075.20;;;;;;4876580;29;20021;-81
2021/06/17 11:10:57;;;;;;;5.15;2.88;;;819.40;1049.60;;;;;;4860574;29;20052;-81
2021/06/17 11:13:57;;;;;;;3.70;2.60;;;819.50;1049.60;;;;;;4876937;29;20096;-83
2021/06/17 11:16:29;;;;;;;3.88;2.20;;;819.40;1049.60;;;;;;4805888;29;20527;-82
2021/06/17 11:19:01;;;;;;;4.03;2.42;;;819.60;1075.20;;;;;;4806479;29;20526;-82
2021/06/17 11:21:27;;;;;;;3.78;2.45;;;819.30;1049.60;;;;;;4819987;29;20042;-83
2021/06/17 11:24:13;;;;;;;4.63;2.45;;;819.40;1049.60;;;;;;4808183;29;20517;-83
2021/06/17 11:26:41;;;;;;;6.75;2.22;;;819.70;1049.60;;;;;;4821214;29;20042;-81
2021/06/17 11:29:09;;;;;;;3.22;2.22;;;819.90;1024.00;;;;;;4805114;29;20033;-80
2021/06/17 11:31:43;;;;;;;5.38;2.50;;;819.90;947.20;;;;;;4805406;29;20030;-82
2021/06/17 11:34:14;;;;;;;4.15;2.20;;;819.60;1049.60;;;;;;4804146;29;20039;-81
2021/06/17 11:36:53;;;;;;;5.05;2.58;;;819.70;972.80;;;;;;4820033;29;20505;-82
2021/06/17 11:39:23;;;;;;;4.00;2.50;;;819.50;1049.60;;;;;;4821465;29;20048;-78
2021/06/17 11:41:49;;;;;;;4.65;2.30;;;819.80;998.40;;;;;;4805478;29;20026;-83
2021/06/17 11:44:25;;;;;;;4.22;2.28;;;819.90;972.80;;;;;;4805871;29;20030;-79
2021/06/17 11:47:10;;;;;;;5.22;2.58;;;820.10;998.40;;;;;;4820564;29;20186;-81
2021/06/17 11:49:39;;;;;;;8.77;2.33;;;820.00;998.40;;;;;;4820300;29;20071;-81
2021/06/17 11:52:27;;;;;;;3.85;2.45;;;819.90;972.80;;;;;;4814656;29;20137;-81
2021/06/17 11:55:03;;;;;;;3.45;2.03;;;820.00;1024.00;;;;;;4876943;29;20014;-80
2021/06/17 11:57:30;;;;;;;3.53;2.10;;;819.90;972.80;;;;;;4860838;29;20029;-81
2021/06/17 11:59:55;;;;;;;4.05;2.20;;;820.00;998.40;;;;;;4861151;29;20073;-81
2021/06/17 12:02:26;;;;;;;7.97;2.33;;;820.00;921.60;;;;;;4877430;29;20029;-81
2021/06/17 12:05:01;;;;;;;3.03;2.00;;;820.00;998.40;;;;;;4860951;29;20040;-80
2021/06/17 12:07:29;;;;;;;3.50;2.15;;;820.10;947.20;;;;;;4861447;29;20033;-86
2021/06/17 12:10:20;;;;;;;3.63;2.30;;;820.10;947.20;;;;;;4861348;29;20324;-82
2021/06/17 12:12:52;;;;;;;5.53;2.38;;;820.00;972.80;;;;;;4857267;29;20039;-81
2021/06/17 12:15:29;;;;;;;4.68;2.22;;;820.10;1024.00;;;;;;4861193;29;20029;-77
2021/06/17 12:17:59;;;;;;;9.73;2.50;;;845.00;947.20;;;;;;4857555;29;20048;-79
2021/06/17 12:20:32;;;;;;;5.55;2.10;;;844.90;998.40;;;;;;4877418;29;20025;-79
2021/06/17 12:23:01;;;;;;;5.75;2.30;;;820.10;947.20;;;;;;4878182;29;20049;-78
2021/06/17 12:25:33;;;;;;;8.77;2.58;;;820.00;947.20;;;;;;4878079;29;20076;-79
2021/06/17 12:28:01;;;;;;;6.20;2.60;;;819.70;998.40;;;;;;4864288;29;20059;-80
2021/06/17 12:30:38;;;;;;;3.58;2.15;;;819.80;1024.00;;;;;;4861674;29;20025;-78
2021/06/17 12:33:19;;;;;;;7.43;2.30;;;820.00;1024.00;;;;;;4880781;29;20071;-79